createdAt,value
2017-09-02T00:00:35.360Z,88.10
2017-09-02T00:03:03.837Z,88.30
2017-09-02T00:05:32.181Z,88.30
2017-09-02T00:08:01.201Z,88.30
2017-09-02T00:10:29.659Z,88.30
2017-09-02T00:12:58.984Z,88.00
2017-09-02T00:15:27.343Z,88.00
2017-09-02T00:17:55.729Z,88.40
2017-09-02T00:20:24.078Z,88.30
2017-09-02T00:22:52.480Z,88.50
2017-09-02T00:25:20.838Z,88.20
2017-09-02T00:27:49.194Z,88.30
2017-09-02T00:30:17.559Z,88.40
2017-09-02T00:32:45.925Z,88.40
2017-09-02T00:35:14.305Z,88.40
2017-09-02T00:37:42.668Z,88.30
2017-09-02T00:40:11.079Z,88.20
2017-09-02T00:42:39.389Z,89.00
2017-09-02T00:45:07.764Z,88.30
2017-09-02T00:47:36.121Z,88.40
2017-09-02T00:50:04.520Z,88.60
2017-09-02T00:52:33.096Z,88.70
2017-09-02T00:55:01.447Z,88.70
2017-09-02T00:57:29.849Z,88.50
2017-09-02T00:59:58.446Z,88.30
2017-09-02T01:02:27.559Z,88.10
2017-09-02T01:04:55.918Z,88.00
2017-09-02T01:07:24.478Z,88.20
2017-09-02T01:09:52.958Z,88.10
2017-09-02T01:12:21.585Z,88.20
2017-09-02T01:14:49.950Z,88.00
2017-09-02T01:17:18.322Z,88.40
2017-09-02T01:19:46.687Z,88.00
2017-09-02T01:22:15.082Z,88.30
2017-09-02T01:24:43.453Z,88.40
2017-09-02T01:27:11.997Z,88.30
2017-09-02T01:29:40.387Z,88.70
2017-09-02T01:32:08.982Z,88.40
2017-09-02T01:34:37.537Z,88.40
2017-09-02T01:37:05.909Z,88.20
2017-09-02T01:39:34.266Z,88.40
2017-09-02T01:42:02.675Z,88.40
2017-09-02T01:44:31.047Z,88.20
2017-09-02T01:46:59.409Z,88.30
2017-09-02T01:49:27.800Z,88.40
2017-09-02T01:51:56.159Z,88.00
2017-09-02T01:54:24.644Z,88.50
2017-09-02T01:56:53.000Z,87.60
2017-09-02T01:59:21.395Z,87.90
2017-09-02T02:01:49.750Z,87.90
2017-09-02T02:04:18.123Z,87.90
2017-09-02T02:06:47.446Z,88.00
2017-09-02T02:09:15.801Z,88.20
2017-09-02T02:11:44.180Z,88.30
2017-09-02T02:14:12.554Z,88.20
2017-09-02T02:16:41.050Z,87.90
2017-09-02T02:19:09.413Z,88.40
2017-09-02T02:21:38.536Z,87.90
2017-09-02T02:24:07.102Z,87.80
2017-09-02T02:26:35.477Z,88.00
2017-09-02T02:29:03.822Z,88.00
2017-09-02T02:31:32.178Z,87.80
2017-09-02T02:34:01.226Z,88.00
2017-09-02T02:36:29.581Z,87.80
2017-09-02T02:38:58.073Z,87.60
2017-09-02T02:41:27.191Z,87.70
2017-09-02T02:43:55.747Z,87.70
2017-09-02T02:46:24.098Z,87.70
2017-09-02T02:48:53.422Z,87.20
2017-09-02T02:51:21.787Z,87.10
2017-09-02T02:53:50.158Z,86.90
2017-09-02T02:56:18.550Z,87.10
2017-09-02T02:58:46.982Z,86.90
2017-09-02T03:01:15.348Z,87.10
2017-09-02T03:03:43.912Z,86.90
2017-09-02T03:06:12.261Z,87.10
2017-09-02T03:08:40.622Z,87.50
2017-09-02T03:11:08.985Z,87.00
2017-09-02T03:13:37.384Z,86.80
2017-09-02T03:16:05.733Z,87.20
2017-09-02T03:18:34.094Z,87.30
2017-09-02T03:21:02.511Z,87.20
2017-09-02T03:23:30.873Z,86.90
2017-09-02T03:25:59.218Z,86.50
2017-09-02T03:28:27.570Z,86.70
2017-09-02T03:30:55.934Z,86.60
2017-09-02T03:33:24.517Z,86.50
2017-09-02T03:35:52.974Z,85.90
2017-09-02T03:38:21.333Z,85.70
2017-09-02T03:40:49.692Z,86.20
2017-09-02T03:43:18.818Z,86.20
2017-09-02T03:45:47.173Z,86.10
2017-09-02T03:48:15.775Z,85.30
2017-09-02T03:50:44.127Z,84.90
2017-09-02T03:53:12.674Z,85.10
2017-09-02T03:55:41.212Z,85.40
2017-09-02T03:58:09.891Z,85.00
2017-09-02T04:00:38.241Z,84.90
2017-09-02T04:03:06.735Z,85.50
2017-09-02T04:05:35.119Z,84.70
2017-09-02T04:08:03.472Z,85.10
2017-09-02T04:10:31.819Z,85.00
2017-09-02T04:13:00.176Z,85.80
2017-09-02T04:15:28.359Z,88.00
2017-09-02T04:17:56.712Z,88.70
2017-09-02T04:20:25.188Z,89.20
2017-09-02T04:22:53.771Z,88.90
2017-09-02T04:25:22.144Z,89.20
2017-09-02T04:27:50.509Z,90.00
2017-09-02T04:30:18.866Z,89.10
2017-09-02T04:32:47.268Z,89.90
2017-09-02T04:35:15.734Z,90.00
2017-09-02T04:37:44.086Z,89.90
2017-09-02T04:40:12.448Z,90.40
2017-09-02T04:42:41.782Z,89.90
2017-09-02T04:45:10.141Z,89.90
2017-09-02T04:47:38.589Z,89.00
2017-09-02T04:50:07.831Z,90.30
2017-09-02T04:52:36.184Z,90.30
2017-09-02T04:55:04.552Z,90.30
2017-09-02T04:57:33.714Z,89.40
2017-09-02T05:00:02.074Z,89.40
2017-09-02T05:02:30.431Z,88.30
2017-09-02T05:04:58.999Z,88.60
2017-09-02T05:07:27.393Z,89.00
2017-09-02T05:09:55.999Z,89.50
2017-09-02T05:12:24.352Z,89.00
2017-09-02T05:14:52.820Z,88.60
2017-09-02T05:17:21.259Z,87.60
2017-09-02T05:19:49.427Z,86.70
2017-09-02T05:22:17.795Z,87.70
2017-09-02T05:24:46.690Z,87.60
2017-09-02T05:27:15.046Z,88.20
2017-09-02T05:29:43.438Z,87.20
2017-09-02T05:32:11.810Z,86.70
2017-09-02T05:34:40.172Z,87.70
2017-09-02T05:37:08.816Z,87.70
2017-09-02T05:39:37.192Z,87.00
2017-09-02T05:42:05.550Z,86.70
2017-09-02T05:44:33.902Z,86.80
2017-09-02T05:47:03.181Z,87.30
2017-09-02T05:49:31.538Z,87.10
2017-09-02T05:51:59.893Z,87.20
2017-09-02T05:54:28.369Z,86.40
2017-09-02T05:56:56.972Z,86.50
2017-09-02T05:59:25.325Z,87.00
2017-09-02T06:01:53.503Z,86.60
2017-09-02T06:04:21.884Z,86.80
2017-09-02T06:06:50.233Z,86.50
2017-09-02T06:09:18.610Z,86.40
2017-09-02T06:11:46.968Z,86.00
2017-09-02T06:14:16.108Z,86.40
2017-09-02T06:16:44.475Z,86.40
2017-09-02T06:19:12.712Z,85.70
2017-09-02T06:21:41.843Z,85.90
2017-09-02T06:24:10.344Z,85.80
2017-09-02T06:26:38.731Z,85.80
2017-09-02T06:29:07.094Z,86.10
2017-09-02T06:31:35.446Z,84.60
2017-09-02T06:34:03.818Z,85.60
2017-09-02T06:36:32.445Z,85.00
2017-09-02T06:39:00.818Z,84.50
2017-09-02T06:41:29.357Z,84.10
2017-09-02T06:43:57.719Z,83.90
2017-09-02T06:46:26.313Z,84.10
2017-09-02T06:48:54.790Z,83.40
2017-09-02T06:51:23.370Z,83.00
2017-09-02T06:53:51.733Z,82.50
2017-09-02T06:56:20.357Z,83.50
2017-09-02T06:58:48.748Z,82.70
2017-09-02T07:01:17.283Z,82.60
2017-09-02T07:03:45.879Z,81.40
2017-09-02T07:06:14.362Z,81.30
2017-09-02T07:08:42.714Z,81.30
2017-09-02T07:11:11.080Z,81.90
2017-09-02T07:13:39.434Z,81.30
2017-09-02T07:16:07.823Z,81.60
2017-09-02T07:18:36.182Z,82.40
2017-09-02T07:21:05.124Z,81.50
2017-09-02T07:23:33.590Z,81.40
2017-09-02T07:26:02.157Z,82.70
2017-09-02T07:28:30.526Z,81.30
2017-09-02T07:30:59.517Z,81.00
2017-09-02T07:33:28.007Z,81.30
2017-09-02T07:35:56.377Z,80.00
2017-09-02T07:38:24.822Z,78.70
2017-09-02T07:40:53.190Z,79.10
2017-09-02T07:43:21.551Z,79.10
2017-09-02T07:45:50.487Z,79.80
2017-09-02T07:48:18.858Z,79.80
2017-09-02T07:50:47.520Z,79.50
2017-09-02T07:53:15.692Z,79.00
2017-09-02T07:55:44.243Z,79.10
2017-09-02T07:58:12.614Z,80.00
2017-09-02T08:00:40.976Z,78.90
2017-09-02T08:03:09.236Z,79.30
2017-09-02T08:05:37.511Z,80.00
2017-09-02T08:08:05.682Z,77.00
2017-09-02T08:10:33.877Z,77.40
2017-09-02T08:13:02.139Z,78.30
2017-09-02T08:15:30.506Z,78.80
2017-09-02T08:17:59.638Z,76.50
2017-09-02T08:20:28.001Z,76.50
2017-09-02T08:22:56.368Z,72.90
2017-09-02T08:25:24.721Z,73.70
2017-09-02T08:27:53.096Z,75.30
2017-09-02T08:30:21.455Z,74.00
2017-09-02T08:32:49.813Z,72.50
2017-09-02T08:35:18.183Z,73.00
2017-09-02T08:37:46.560Z,73.60
2017-09-02T08:40:14.930Z,73.70
2017-09-02T08:42:43.286Z,72.00
2017-09-02T08:45:11.831Z,72.90
2017-09-02T08:47:40.205Z,72.80
2017-09-02T08:50:08.564Z,71.30
2017-09-02T08:52:37.023Z,69.50
2017-09-02T08:55:05.386Z,69.10
2017-09-02T08:57:33.757Z,68.00
2017-09-02T09:00:02.118Z,69.60
2017-09-02T09:02:30.563Z,69.80
2017-09-02T09:04:59.198Z,70.00
2017-09-02T09:07:27.638Z,68.80
2017-09-02T09:09:55.981Z,68.40
2017-09-02T09:12:24.354Z,69.40
2017-09-02T09:14:53.315Z,68.00
2017-09-02T09:17:21.950Z,68.10
2017-09-02T09:19:50.321Z,69.90
2017-09-02T09:22:18.696Z,68.00
2017-09-02T09:24:47.048Z,67.20
2017-09-02T09:27:16.166Z,67.20
2017-09-02T09:29:44.552Z,67.10
2017-09-02T09:32:12.928Z,66.50
2017-09-02T09:34:41.300Z,65.40
2017-09-02T09:37:09.670Z,63.20
2017-09-02T09:39:38.048Z,65.10
2017-09-02T09:42:06.414Z,63.30
2017-09-02T09:44:34.794Z,61.90
2017-09-02T09:47:03.172Z,61.60
2017-09-02T09:49:31.536Z,62.20
2017-09-02T09:51:59.924Z,64.30
2017-09-02T09:54:28.275Z,62.70
2017-09-02T09:56:56.648Z,58.70
2017-09-02T09:59:25.780Z,61.00
2017-09-02T10:01:54.554Z,61.00
2017-09-02T10:04:23.129Z,61.60
2017-09-02T10:06:51.611Z,61.70
2017-09-02T10:09:19.981Z,59.90
2017-09-02T10:11:48.340Z,58.40
2017-09-02T10:14:16.695Z,58.30
2017-09-02T10:16:45.053Z,58.60
2017-09-02T10:19:13.493Z,58.80
2017-09-02T10:21:41.847Z,58.80
2017-09-02T10:24:10.210Z,57.40
2017-09-02T10:26:39.540Z,56.00
2017-09-02T10:29:08.017Z,55.90
2017-09-02T10:31:36.597Z,57.20
2017-09-02T10:34:04.776Z,56.80
2017-09-02T10:36:33.149Z,58.60
2017-09-02T10:39:02.271Z,58.70
2017-09-02T10:41:30.715Z,58.70
2017-09-02T10:43:59.154Z,57.90
2017-09-02T10:46:27.515Z,57.00
2017-09-02T10:48:55.883Z,57.70
2017-09-02T10:51:24.247Z,56.40
2017-09-02T10:53:52.609Z,56.30
2017-09-02T10:56:21.279Z,55.80
2017-09-02T10:58:49.732Z,57.00
2017-09-02T11:01:18.095Z,54.60
2017-09-02T11:03:47.231Z,55.50
2017-09-02T11:06:15.269Z,55.50
2017-09-02T11:08:43.670Z,56.30
2017-09-02T11:11:12.023Z,55.80
2017-09-02T11:13:40.400Z,55.00
2017-09-02T11:16:08.764Z,56.00
2017-09-02T11:18:37.131Z,55.40
2017-09-02T11:21:05.508Z,56.80
2017-09-02T11:23:33.868Z,56.60
2017-09-02T11:26:02.237Z,53.30
2017-09-02T11:28:30.602Z,53.30
2017-09-02T11:30:58.990Z,54.20
2017-09-02T11:33:27.490Z,55.10
2017-09-02T11:35:55.848Z,54.90
2017-09-02T11:38:24.246Z,56.00
2017-09-02T11:40:52.598Z,53.10
2017-09-02T11:43:20.950Z,53.50
2017-09-02T11:45:49.342Z,54.10
2017-09-02T11:48:17.723Z,53.30
2017-09-02T11:50:46.261Z,53.90
2017-09-02T11:53:14.643Z,52.20
2017-09-02T11:55:43.118Z,54.00
2017-09-02T11:58:11.473Z,55.50
2017-09-02T12:00:39.835Z,57.50
2017-09-02T12:03:08.976Z,76.20
2017-09-02T12:05:37.354Z,76.30
2017-09-02T12:08:05.730Z,74.80
2017-09-02T12:10:34.300Z,75.00
2017-09-02T12:13:02.694Z,71.10
2017-09-02T12:15:31.053Z,73.50
2017-09-02T12:17:59.406Z,71.90
2017-09-02T12:20:27.795Z,72.40
2017-09-02T12:22:56.171Z,75.60
2017-09-02T12:25:24.650Z,75.80
2017-09-02T12:27:53.011Z,75.80
2017-09-02T12:30:21.388Z,68.50
2017-09-02T12:32:49.744Z,71.50
2017-09-02T12:35:18.858Z,60.00
2017-09-02T12:37:47.221Z,60.10
2017-09-02T12:40:15.565Z,59.70
2017-09-02T12:42:43.917Z,54.50
2017-09-02T12:45:12.113Z,54.20
2017-09-02T12:47:40.546Z,54.80
2017-09-02T12:50:08.984Z,54.40
2017-09-02T12:52:37.357Z,53.20
2017-09-02T12:55:05.703Z,53.60
2017-09-02T12:57:34.873Z,55.60
2017-09-02T13:00:03.352Z,55.60
2017-09-02T13:02:31.707Z,56.80
2017-09-02T13:05:00.099Z,57.00
2017-09-02T13:07:28.685Z,57.20
2017-09-02T13:09:57.039Z,55.90
2017-09-02T13:12:25.405Z,55.50
2017-09-02T13:14:53.756Z,54.80
2017-09-02T13:17:22.145Z,54.90
2017-09-02T13:19:50.522Z,53.20
2017-09-02T13:22:18.878Z,53.60
2017-09-02T13:24:47.233Z,52.60
2017-09-02T13:27:15.581Z,53.50
2017-09-02T13:29:43.966Z,53.20
2017-09-02T13:32:12.332Z,53.00
2017-09-02T13:34:40.680Z,52.80
2017-09-02T13:37:09.041Z,52.50
2017-09-02T13:39:37.461Z,52.30
2017-09-02T13:42:05.804Z,50.00
2017-09-02T13:44:34.167Z,50.30
2017-09-02T13:47:02.520Z,50.60
2017-09-02T13:49:31.086Z,49.50
2017-09-02T13:51:59.442Z,48.80
2017-09-02T13:54:27.788Z,47.90
2017-09-02T13:56:56.145Z,46.10
2017-09-02T13:59:24.569Z,48.50
2017-09-02T14:01:52.919Z,48.60
2017-09-02T14:04:21.285Z,46.90
2017-09-02T14:06:49.696Z,47.50
2017-09-02T14:09:17.850Z,46.90
2017-09-02T14:11:46.025Z,48.50
2017-09-02T14:14:14.213Z,47.30
2017-09-02T14:16:42.585Z,47.90
2017-09-02T14:19:11.014Z,48.80
2017-09-02T14:21:39.366Z,50.10
2017-09-02T14:24:07.732Z,49.70
2017-09-02T14:26:36.302Z,49.70
2017-09-02T14:29:04.637Z,52.80
2017-09-02T14:31:33.003Z,53.00
2017-09-02T14:34:01.529Z,53.50
2017-09-02T14:36:29.902Z,52.00
2017-09-02T14:38:58.251Z,52.70
2017-09-02T14:41:26.611Z,53.80
2017-09-02T14:43:55.030Z,53.80
2017-09-02T14:46:23.635Z,54.40
2017-09-02T14:48:52.085Z,52.50
2017-09-02T14:51:20.461Z,53.00
2017-09-02T14:53:48.819Z,53.70
2017-09-02T14:56:17.266Z,54.00
2017-09-02T14:58:46.263Z,53.30
2017-09-02T15:01:14.622Z,55.10
2017-09-02T15:03:42.997Z,54.90
2017-09-02T15:06:11.638Z,56.10
2017-09-02T15:08:40.014Z,55.70
2017-09-02T15:11:08.368Z,57.30
2017-09-02T15:13:36.732Z,58.00
2017-09-02T15:16:05.858Z,57.40
2017-09-02T15:18:34.230Z,57.30
2017-09-02T15:21:02.742Z,58.80
2017-09-02T15:23:31.128Z,61.60
2017-09-02T15:25:59.494Z,62.00
2017-09-02T15:28:27.843Z,65.60
2017-09-02T15:30:56.218Z,60.50
2017-09-02T15:33:24.691Z,64.50
2017-09-02T15:35:53.215Z,63.90
2017-09-02T15:38:21.756Z,63.60
2017-09-02T15:40:50.158Z,66.50
2017-09-02T15:43:18.538Z,63.30
2017-09-02T15:45:46.906Z,65.50
2017-09-02T15:48:15.356Z,63.30
2017-09-02T15:50:43.720Z,62.20
2017-09-02T15:53:12.066Z,61.40
2017-09-02T15:55:40.629Z,60.60
2017-09-02T15:58:08.991Z,59.40
2017-09-02T16:00:37.005Z,59.80
2017-09-02T16:03:06.497Z,58.80
2017-09-02T16:05:34.852Z,58.00
2017-09-02T16:08:03.221Z,58.00
2017-09-02T16:10:31.405Z,57.20
2017-09-02T16:12:59.773Z,57.90
2017-09-02T16:15:28.123Z,57.40
2017-09-02T16:17:56.549Z,56.90
2017-09-02T16:20:24.958Z,56.50
2017-09-02T16:22:53.338Z,57.30
2017-09-02T16:25:21.695Z,57.30
2017-09-02T16:27:50.334Z,55.90
2017-09-02T16:30:18.705Z,55.30
2017-09-02T16:32:47.075Z,56.40
2017-09-02T16:35:15.650Z,55.90
2017-09-02T16:37:44.104Z,57.20
2017-09-02T16:40:12.490Z,58.00
2017-09-02T16:42:40.841Z,57.50
2017-09-02T16:45:09.195Z,58.80
2017-09-02T16:47:38.149Z,60.00
2017-09-02T16:50:06.323Z,60.00
2017-09-02T16:52:34.487Z,60.10
2017-09-02T16:55:02.664Z,58.90
2017-09-02T16:57:31.061Z,58.90
2017-09-02T16:59:59.227Z,59.70
2017-09-02T17:02:27.664Z,59.70
2017-09-02T17:04:57.831Z,59.40
2017-09-02T17:07:26.027Z,59.50
2017-09-02T17:09:54.218Z,60.30
2017-09-02T17:12:22.389Z,62.60
2017-09-02T17:14:50.566Z,66.70
2017-09-02T17:17:18.887Z,68.60
2017-09-02T17:19:47.060Z,70.40
2017-09-02T17:22:15.241Z,70.00
2017-09-02T17:24:43.549Z,72.40
2017-09-02T17:27:11.723Z,75.70
2017-09-02T17:29:39.908Z,76.20
2017-09-02T17:32:08.278Z,76.00
2017-09-02T17:34:36.642Z,76.70
2017-09-02T17:37:05.122Z,76.30
2017-09-02T17:39:33.508Z,73.50
2017-09-02T17:42:01.883Z,75.60
2017-09-02T17:44:30.275Z,76.70
2017-09-02T17:46:58.643Z,73.80
2017-09-02T17:49:27.002Z,74.90
2017-09-02T17:51:55.067Z,76.00
2017-09-02T17:54:23.426Z,76.10
2017-09-02T17:56:51.886Z,76.40
2017-09-02T17:59:20.251Z,78.30
2017-09-02T18:01:48.611Z,77.50
2017-09-02T18:04:16.991Z,79.80
2017-09-02T18:06:45.363Z,75.00
2017-09-02T18:09:13.736Z,76.10
2017-09-02T18:11:41.918Z,77.90
2017-09-02T18:14:10.285Z,77.00
2017-09-02T18:16:38.643Z,75.70
2017-09-02T18:19:07.023Z,76.80
2017-09-02T18:21:35.378Z,76.50
2017-09-02T18:24:03.776Z,79.10
2017-09-02T18:26:32.165Z,78.20
2017-09-02T18:29:00.543Z,78.00
2017-09-02T18:31:28.906Z,79.60
2017-09-02T18:33:57.258Z,79.50
2017-09-02T18:36:25.631Z,79.50
2017-09-02T18:38:54.006Z,79.60
2017-09-02T18:41:22.187Z,79.60
2017-09-02T18:43:50.570Z,79.20
2017-09-02T18:46:18.947Z,78.50
2017-09-02T18:48:47.134Z,77.80
2017-09-02T18:51:15.324Z,77.30
2017-09-02T18:53:43.498Z,77.80
2017-09-02T18:56:11.883Z,78.10
2017-09-02T18:58:40.270Z,78.60
2017-09-02T19:01:08.648Z,78.30
2017-09-02T19:03:37.024Z,77.30
2017-09-02T19:06:06.159Z,78.40
2017-09-02T19:08:34.672Z,78.20
2017-09-02T19:11:03.026Z,80.00
2017-09-02T19:13:31.406Z,79.90
2017-09-02T19:15:59.808Z,78.90
2017-09-02T19:18:28.444Z,78.30
2017-09-02T19:20:56.802Z,79.60
2017-09-02T19:23:25.282Z,79.60
2017-09-02T19:25:53.884Z,79.40
2017-09-02T19:28:22.249Z,80.30
2017-09-02T19:30:50.714Z,79.90
2017-09-02T19:33:19.090Z,80.00
2017-09-02T19:35:47.460Z,80.40
2017-09-02T19:38:15.827Z,80.20
2017-09-02T19:40:44.189Z,80.90
2017-09-02T19:43:13.326Z,81.20
2017-09-02T19:45:41.698Z,81.20
2017-09-02T19:48:11.056Z,81.00
2017-09-02T19:50:39.423Z,81.20
2017-09-02T19:53:07.802Z,80.70
2017-09-02T19:55:36.185Z,80.40
2017-09-02T19:58:04.567Z,81.30
2017-09-02T20:00:32.965Z,82.30
2017-09-02T20:03:01.317Z,82.50
2017-09-02T20:05:29.701Z,82.40
2017-09-02T20:07:58.183Z,83.30
2017-09-02T20:10:26.376Z,82.70
2017-09-02T20:12:57.589Z,82.70
2017-09-02T20:15:25.972Z,82.20
2017-09-02T20:17:54.342Z,83.20
2017-09-02T20:20:22.845Z,83.30
2017-09-02T20:22:51.201Z,82.10
2017-09-02T20:25:19.902Z,80.10
2017-09-02T20:27:48.277Z,79.10
2017-09-02T20:30:17.395Z,78.50
2017-09-02T20:32:45.956Z,79.20
2017-09-02T20:35:14.432Z,79.60
2017-09-02T20:37:42.914Z,80.00
2017-09-02T20:40:11.309Z,80.80
2017-09-02T20:42:40.080Z,81.10
2017-09-02T20:45:08.445Z,80.10
2017-09-02T20:47:37.027Z,79.80
2017-09-02T20:50:05.433Z,79.80
2017-09-02T20:52:33.803Z,78.70
2017-09-02T20:55:02.163Z,80.00
2017-09-02T20:57:30.893Z,79.20
2017-09-02T20:59:59.310Z,78.60
2017-09-02T21:02:28.444Z,79.10
2017-09-02T21:04:56.996Z,79.10
2017-09-02T21:07:25.676Z,79.50
2017-09-02T21:09:54.119Z,79.30
2017-09-02T21:12:22.614Z,79.30
2017-09-02T21:14:51.106Z,80.00
2017-09-02T21:17:19.467Z,79.90
2017-09-02T21:19:47.874Z,79.70
2017-09-02T21:22:16.250Z,79.50
2017-09-02T21:24:44.611Z,80.00
2017-09-02T21:27:13.089Z,80.10
2017-09-02T21:29:41.438Z,80.10
2017-09-02T21:32:11.684Z,79.50
2017-09-02T21:34:40.802Z,79.40
2017-09-02T21:37:09.196Z,79.40
2017-09-02T21:39:37.567Z,77.40
2017-09-02T21:42:05.945Z,77.40
2017-09-02T21:44:34.353Z,77.90
2017-09-02T21:47:02.702Z,78.20
2017-09-02T21:49:31.084Z,77.80
2017-09-02T21:51:59.481Z,78.30
2017-09-02T21:54:27.853Z,79.10
2017-09-02T21:56:56.240Z,79.10
2017-09-02T21:59:24.608Z,79.60
2017-09-02T22:01:53.118Z,77.70
2017-09-02T22:04:21.480Z,77.40
2017-09-02T22:06:50.104Z,77.70
2017-09-02T22:09:18.552Z,78.50
2017-09-02T22:11:46.903Z,78.80
2017-09-02T22:14:15.313Z,79.40
2017-09-02T22:16:43.677Z,79.80
2017-09-02T22:19:12.042Z,79.20
2017-09-02T22:21:40.420Z,79.40
2017-09-02T22:24:08.800Z,79.70
2017-09-02T22:26:37.198Z,80.50
2017-09-02T22:29:05.566Z,79.40
2017-09-02T22:31:34.038Z,79.90
2017-09-02T22:34:02.399Z,80.00
2017-09-02T22:36:30.844Z,80.90
2017-09-02T22:38:59.210Z,81.60
2017-09-02T22:41:27.564Z,80.60
2017-09-02T22:43:55.923Z,80.90
2017-09-02T22:46:24.352Z,80.00
2017-09-02T22:48:52.735Z,79.30
2017-09-02T22:51:21.097Z,79.60
2017-09-02T22:53:49.461Z,80.00
2017-09-02T22:56:17.827Z,80.70
2017-09-02T22:58:45.664Z,80.20
2017-09-02T23:01:16.075Z,80.10
2017-09-02T23:03:44.428Z,79.30
2017-09-02T23:06:13.063Z,78.10
2017-09-02T23:08:41.427Z,78.50
2017-09-02T23:11:09.896Z,79.40
2017-09-02T23:13:38.261Z,80.00
2017-09-02T23:16:06.748Z,80.20
2017-09-02T23:18:35.135Z,78.90
2017-09-02T23:21:03.506Z,79.30
2017-09-02T23:23:31.862Z,80.40
2017-09-02T23:26:00.227Z,80.60
2017-09-02T23:28:28.599Z,80.60
2017-09-02T23:30:57.008Z,79.00
2017-09-02T23:33:25.369Z,78.60
2017-09-02T23:35:53.729Z,79.30
2017-09-02T23:38:22.135Z,79.70
2017-09-02T23:40:50.496Z,79.60
2017-09-02T23:43:18.868Z,80.10
2017-09-02T23:45:47.231Z,80.40
2017-09-02T23:48:15.634Z,80.00
2017-09-02T23:50:43.989Z,79.70
2017-09-02T23:53:12.360Z,81.10
2017-09-02T23:55:40.807Z,80.60
2017-09-02T23:58:09.349Z,80.70
